sensor_id;sensor_type;location;lat;lon;timestamp;P1;durP1;ratioP1;P2;durP2;ratioP2
25854;SDS011;13680;49.936;11.344;2023-08-20T00:01:05;12.68;;;5.47;;
25854;SDS011;13680;49.936;11.344;2023-08-20T00:03:32;13.43;;;5.03;;
25854;SDS011;13680;49.936;11.344;2023-08-20T00:05:58;6.68;;;5.13;;
25854;SDS011;13680;49.936;11.344;2023-08-20T00:08:24;12.75;;;5.50;;
25854;SDS011;13680;49.936;11.344;2023-08-20T00:10:49;8.88;;;5.47;;
25854;SDS011;13680;49.936;11.344;2023-08-20T00:13:14;7.55;;;5.20;;
25854;SDS011;13680;49.936;11.344;2023-08-20T00:15:40;11.25;;;5.13;;
25854;SDS011;13680;49.936;11.344;2023-08-20T00:18:05;12.32;;;5.22;;
25854;SDS011;13680;49.936;11.344;2023-08-20T00:20:31;10.80;;;5.57;;
25854;SDS011;13680;49.936;11.344;2023-08-20T00:22:57;8.75;;;6.13;;
25854;SDS011;13680;49.936;11.344;2023-08-20T00:25:22;8.60;;;5.93;;
25854;SDS011;13680;49.936;11.344;2023-08-20T00:27:48;14.70;;;5.25;;
25854;SDS011;13680;49.936;11.344;2023-08-20T00:30:13;9.68;;;5.68;;
25854;SDS011;13680;49.936;11.344;2023-08-20T00:32:39;9.32;;;5.60;;
25854;SDS011;13680;49.936;11.344;2023-08-20T00:35:05;7.43;;;5.20;;
25854;SDS011;13680;49.936;11.344;2023-08-20T00:37:32;10.98;;;5.32;;
25854;SDS011;13680;49.936;11.344;2023-08-20T00:39:57;9.27;;;5.35;;
25854;SDS011;13680;49.936;11.344;2023-08-20T00:42:23;12.90;;;5.60;;
25854;SDS011;13680;49.936;11.344;2023-08-20T00:44:50;9.82;;;6.28;;
25854;SDS011;13680;49.936;11.344;2023-08-20T00:47:16;12.60;;;6.38;;
25854;SDS011;13680;49.936;11.344;2023-08-20T00:49:43;7.95;;;5.32;;
25854;SDS011;13680;49.936;11.344;2023-08-20T00:52:08;7.82;;;5.43;;
25854;SDS011;13680;49.936;11.344;2023-08-20T00:54:35;10.52;;;6.15;;
25854;SDS011;13680;49.936;11.344;2023-08-20T00:57:01;11.38;;;5.93;;
25854;SDS011;13680;49.936;11.344;2023-08-20T00:59:28;11.85;;;6.63;;
25854;SDS011;13680;49.936;11.344;2023-08-20T01:01:56;8.88;;;6.28;;
25854;SDS011;13680;49.936;11.344;2023-08-20T01:04:22;11.57;;;6.10;;
25854;SDS011;13680;49.936;11.344;2023-08-20T01:06:55;10.23;;;6.00;;
25854;SDS011;13680;49.936;11.344;2023-08-20T01:12:34;18.20;;;6.15;;
25854;SDS011;13680;49.936;11.344;2023-08-20T01:14:59;12.50;;;5.80;;
25854;SDS011;13680;49.936;11.344;2023-08-20T01:17:25;15.30;;;6.80;;
25854;SDS011;13680;49.936;11.344;2023-08-20T01:19:50;11.30;;;6.65;;
25854;SDS011;13680;49.936;11.344;2023-08-20T01:30:49;11.15;;;6.15;;
25854;SDS011;13680;49.936;11.344;2023-08-20T01:33:14;11.02;;;6.43;;
25854;SDS011;13680;49.936;11.344;2023-08-20T01:35:40;13.23;;;6.07;;
25854;SDS011;13680;49.936;11.344;2023-08-20T01:38:06;9.75;;;5.72;;
25854;SDS011;13680;49.936;11.344;2023-08-20T01:40:32;9.18;;;6.22;;
25854;SDS011;13680;49.936;11.344;2023-08-20T01:42:58;12.13;;;6.18;;
25854;SDS011;13680;49.936;11.344;2023-08-20T01:45:23;10.63;;;6.22;;
25854;SDS011;13680;49.936;11.344;2023-08-20T01:47:49;14.40;;;6.38;;
25854;SDS011;13680;49.936;11.344;2023-08-20T01:50:14;9.85;;;5.68;;
25854;SDS011;13680;49.936;11.344;2023-08-20T01:52:40;9.40;;;5.95;;
25854;SDS011;13680;49.936;11.344;2023-08-20T01:55:05;9.40;;;5.95;;
25854;SDS011;13680;49.936;11.344;2023-08-20T01:57:31;9.13;;;5.82;;
25854;SDS011;13680;49.936;11.344;2023-08-20T01:59:57;11.60;;;5.55;;
25854;SDS011;13680;49.936;11.344;2023-08-20T02:02:23;16.05;;;6.25;;
25854;SDS011;13680;49.936;11.344;2023-08-20T02:04:49;11.35;;;5.18;;
25854;SDS011;13680;49.936;11.344;2023-08-20T02:07:14;9.77;;;6.32;;
25854;SDS011;13680;49.936;11.344;2023-08-20T02:09:40;9.75;;;6.18;;
25854;SDS011;13680;49.936;11.344;2023-08-20T02:12:05;12.25;;;5.75;;
25854;SDS011;13680;49.936;11.344;2023-08-20T02:14:30;14.88;;;6.07;;
25854;SDS011;13680;49.936;11.344;2023-08-20T02:16:59;10.38;;;6.00;;
25854;SDS011;13680;49.936;11.344;2023-08-20T02:19:28;11.15;;;5.88;;
25854;SDS011;13680;49.936;11.344;2023-08-20T02:21:53;9.02;;;5.60;;
25854;SDS011;13680;49.936;11.344;2023-08-20T02:24:19;8.68;;;5.43;;
25854;SDS011;13680;49.936;11.344;2023-08-20T02:26:44;8.40;;;5.65;;
25854;SDS011;13680;49.936;11.344;2023-08-20T02:29:09;8.98;;;5.95;;
25854;SDS011;13680;49.936;11.344;2023-08-20T02:31:35;7.78;;;5.60;;
25854;SDS011;13680;49.936;11.344;2023-08-20T02:34:00;9.60;;;6.18;;
25854;SDS011;13680;49.936;11.344;2023-08-20T02:36:26;8.90;;;6.10;;
25854;SDS011;13680;49.936;11.344;2023-08-20T02:38:51;16.60;;;6.85;;
25854;SDS011;13680;49.936;11.344;2023-08-20T02:41:16;11.13;;;5.68;;
25854;SDS011;13680;49.936;11.344;2023-08-20T02:43:42;13.63;;;5.85;;
25854;SDS011;13680;49.936;11.344;2023-08-20T02:46:07;11.32;;;6.00;;
25854;SDS011;13680;49.936;11.344;2023-08-20T02:48:33;15.88;;;5.90;;
25854;SDS011;13680;49.936;11.344;2023-08-20T02:50:58;11.68;;;5.65;;
25854;SDS011;13680;49.936;11.344;2023-08-20T02:53:24;10.30;;;5.93;;
25854;SDS011;13680;49.936;11.344;2023-08-20T02:55:49;9.70;;;6.60;;
25854;SDS011;13680;49.936;11.344;2023-08-20T02:58:15;8.73;;;6.40;;
25854;SDS011;13680;49.936;11.344;2023-08-20T03:00:40;9.75;;;5.70;;
25854;SDS011;13680;49.936;11.344;2023-08-20T03:03:07;10.38;;;6.25;;
25854;SDS011;13680;49.936;11.344;2023-08-20T03:05:33;7.50;;;6.00;;
25854;SDS011;13680;49.936;11.344;2023-08-20T03:07:59;11.40;;;6.20;;
25854;SDS011;13680;49.936;11.344;2023-08-20T03:10:25;10.73;;;6.10;;
25854;SDS011;13680;49.936;11.344;2023-08-20T03:12:52;8.40;;;6.00;;
25854;SDS011;13680;49.936;11.344;2023-08-20T03:15:17;11.50;;;6.13;;
25854;SDS011;13680;49.936;11.344;2023-08-20T03:17:43;13.68;;;6.47;;
25854;SDS011;13680;49.936;11.344;2023-08-20T03:20:08;12.50;;;6.40;;
25854;SDS011;13680;49.936;11.344;2023-08-20T03:22:35;9.93;;;6.47;;
25854;SDS011;13680;49.936;11.344;2023-08-20T03:25:02;10.25;;;6.50;;
25854;SDS011;13680;49.936;11.344;2023-08-20T03:27:27;12.63;;;6.70;;
25854;SDS011;13680;49.936;11.344;2023-08-20T03:29:54;8.38;;;5.85;;
25854;SDS011;13680;49.936;11.344;2023-08-20T03:32:19;9.43;;;5.80;;
25854;SDS011;13680;49.936;11.344;2023-08-20T03:34:44;11.65;;;6.32;;
25854;SDS011;13680;49.936;11.344;2023-08-20T03:37:10;9.20;;;6.05;;
25854;SDS011;13680;49.936;11.344;2023-08-20T03:39:35;12.45;;;6.32;;
25854;SDS011;13680;49.936;11.344;2023-08-20T03:42:00;12.65;;;6.97;;
25854;SDS011;13680;49.936;11.344;2023-08-20T03:44:26;8.13;;;6.10;;
25854;SDS011;13680;49.936;11.344;2023-08-20T03:46:51;9.77;;;6.18;;
25854;SDS011;13680;49.936;11.344;2023-08-20T03:49:16;11.65;;;6.45;;
25854;SDS011;13680;49.936;11.344;2023-08-20T03:51:42;12.18;;;5.90;;
25854;SDS011;13680;49.936;11.344;2023-08-20T03:54:07;14.40;;;7.10;;
25854;SDS011;13680;49.936;11.344;2023-08-20T03:56:33;13.90;;;6.65;;
25854;SDS011;13680;49.936;11.344;2023-08-20T03:58:59;14.02;;;7.18;;
25854;SDS011;13680;49.936;11.344;2023-08-20T04:01:24;10.30;;;7.22;;
25854;SDS011;13680;49.936;11.344;2023-08-20T04:03:49;12.73;;;6.20;;
25854;SDS011;13680;49.936;11.344;2023-08-20T04:06:15;15.80;;;7.65;;
25854;SDS011;13680;49.936;11.344;2023-08-20T04:08:40;9.48;;;7.18;;
25854;SDS011;13680;49.936;11.344;2023-08-20T04:11:06;7.93;;;6.63;;
25854;SDS011;13680;49.936;11.344;2023-08-20T04:13:31;8.30;;;6.03;;
25854;SDS011;13680;49.936;11.344;2023-08-20T04:15:57;16.23;;;6.53;;
25854;SDS011;13680;49.936;11.344;2023-08-20T04:18:22;10.38;;;6.57;;
25854;SDS011;13680;49.936;11.344;2023-08-20T04:20:51;10.90;;;6.30;;
25854;SDS011;13680;49.936;11.344;2023-08-20T04:23:17;8.77;;;6.32;;
25854;SDS011;13680;49.936;11.344;2023-08-20T04:25:44;12.00;;;7.03;;
25854;SDS011;13680;49.936;11.344;2023-08-20T04:28:10;8.00;;;5.72;;
25854;SDS011;13680;49.936;11.344;2023-08-20T04:30:36;10.95;;;6.20;;
25854;SDS011;13680;49.936;11.344;2023-08-20T04:33:01;12.10;;;6.60;;
25854;SDS011;13680;49.936;11.344;2023-08-20T04:35:27;11.45;;;6.53;;
25854;SDS011;13680;49.936;11.344;2023-08-20T04:37:52;12.80;;;6.70;;
25854;SDS011;13680;49.936;11.344;2023-08-20T04:40:18;10.18;;;6.35;;
25854;SDS011;13680;49.936;11.344;2023-08-20T04:42:43;7.47;;;6.22;;
25854;SDS011;13680;49.936;11.344;2023-08-20T04:45:09;8.65;;;5.80;;
25854;SDS011;13680;49.936;11.344;2023-08-20T04:47:35;7.45;;;6.10;;
25854;SDS011;13680;49.936;11.344;2023-08-20T04:50:02;11.18;;;6.47;;
25854;SDS011;13680;49.936;11.344;2023-08-20T04:52:27;8.77;;;6.32;;
25854;SDS011;13680;49.936;11.344;2023-08-20T04:54:53;16.48;;;6.22;;
25854;SDS011;13680;49.936;11.344;2023-08-20T04:57:19;10.43;;;5.57;;
25854;SDS011;13680;49.936;11.344;2023-08-20T04:59:44;11.73;;;6.03;;
25854;SDS011;13680;49.936;11.344;2023-08-20T05:02:13;10.57;;;6.82;;
25854;SDS011;13680;49.936;11.344;2023-08-20T05:04:38;10.40;;;6.32;;
25854;SDS011;13680;49.936;11.344;2023-08-20T05:07:04;14.63;;;6.43;;
25854;SDS011;13680;49.936;11.344;2023-08-20T05:09:30;14.80;;;5.70;;
25854;SDS011;13680;49.936;11.344;2023-08-20T05:11:55;11.43;;;6.32;;
25854;SDS011;13680;49.936;11.344;2023-08-20T05:14:21;16.38;;;5.93;;
25854;SDS011;13680;49.936;11.344;2023-08-20T05:16:46;16.75;;;6.63;;
25854;SDS011;13680;49.936;11.344;2023-08-20T05:19:11;6.80;;;6.10;;
25854;SDS011;13680;49.936;11.344;2023-08-20T05:21:37;8.25;;;5.82;;
25854;SDS011;13680;49.936;11.344;2023-08-20T05:24:02;10.18;;;6.30;;
25854;SDS011;13680;49.936;11.344;2023-08-20T05:26:28;11.45;;;6.32;;
25854;SDS011;13680;49.936;11.344;2023-08-20T05:28:54;8.77;;;6.22;;
25854;SDS011;13680;49.936;11.344;2023-08-20T05:31:19;10.10;;;5.70;;
25854;SDS011;13680;49.936;11.344;2023-08-20T05:33:44;8.45;;;6.63;;
25854;SDS011;13680;49.936;11.344;2023-08-20T05:36:09;12.55;;;7.22;;
25854;SDS011;13680;49.936;11.344;2023-08-20T05:38:35;13.25;;;7.28;;
25854;SDS011;13680;49.936;11.344;2023-08-20T05:41:00;11.38;;;6.20;;
25854;SDS011;13680;49.936;11.344;2023-08-20T05:43:25;8.43;;;5.68;;
25854;SDS011;13680;49.936;11.344;2023-08-20T05:45:51;13.23;;;5.97;;
25854;SDS011;13680;49.936;11.344;2023-08-20T05:48:16;10.00;;;6.63;;
25854;SDS011;13680;49.936;11.344;2023-08-20T05:50:41;9.00;;;6.25;;
25854;SDS011;13680;49.936;11.344;2023-08-20T05:53:06;11.05;;;6.90;;
25854;SDS011;13680;49.936;11.344;2023-08-20T05:55:32;10.27;;;6.55;;
25854;SDS011;13680;49.936;11.344;2023-08-20T05:57:57;7.57;;;6.32;;
25854;SDS011;13680;49.936;11.344;2023-08-20T06:00:22;10.70;;;6.50;;
25854;SDS011;13680;49.936;11.344;2023-08-20T06:02:48;8.88;;;6.57;;
25854;SDS011;13680;49.936;11.344;2023-08-20T06:05:13;12.55;;;6.25;;
25854;SDS011;13680;49.936;11.344;2023-08-20T06:07:40;9.55;;;6.30;;
25854;SDS011;13680;49.936;11.344;2023-08-20T06:10:06;9.73;;;6.65;;
25854;SDS011;13680;49.936;11.344;2023-08-20T06:12:32;11.25;;;6.25;;
25854;SDS011;13680;49.936;11.344;2023-08-20T06:14:59;10.68;;;6.68;;
25854;SDS011;13680;49.936;11.344;2023-08-20T06:17:24;9.93;;;6.32;;
25854;SDS011;13680;49.936;11.344;2023-08-20T06:19:49;11.38;;;6.60;;
25854;SDS011;13680;49.936;11.344;2023-08-20T06:22:15;12.85;;;6.90;;
25854;SDS011;13680;49.936;11.344;2023-08-20T06:24:40;15.23;;;6.35;;
25854;SDS011;13680;49.936;11.344;2023-08-20T06:27:05;7.80;;;5.70;;
25854;SDS011;13680;49.936;11.344;2023-08-20T06:29:31;11.80;;;5.80;;
25854;SDS011;13680;49.936;11.344;2023-08-20T06:31:56;8.02;;;5.47;;
25854;SDS011;13680;49.936;11.344;2023-08-20T06:34:22;11.27;;;5.88;;
25854;SDS011;13680;49.936;11.344;2023-08-20T06:36:47;15.30;;;5.78;;
25854;SDS011;13680;49.936;11.344;2023-08-20T06:39:12;9.75;;;5.93;;
25854;SDS011;13680;49.936;11.344;2023-08-20T06:41:39;13.23;;;6.25;;
25854;SDS011;13680;49.936;11.344;2023-08-20T06:44:04;10.93;;;5.50;;
25854;SDS011;13680;49.936;11.344;2023-08-20T06:46:30;8.93;;;5.53;;
25854;SDS011;13680;49.936;11.344;2023-08-20T06:48:55;8.25;;;5.70;;
25854;SDS011;13680;49.936;11.344;2023-08-20T06:51:21;15.45;;;6.07;;
25854;SDS011;13680;49.936;11.344;2023-08-20T06:53:47;10.80;;;5.80;;
25854;SDS011;13680;49.936;11.344;2023-08-20T06:56:12;13.10;;;5.40;;
25854;SDS011;13680;49.936;11.344;2023-08-20T06:58:39;10.55;;;5.57;;
25854;SDS011;13680;49.936;11.344;2023-08-20T07:01:05;7.88;;;5.38;;
25854;SDS011;13680;49.936;11.344;2023-08-20T07:03:38;11.63;;;5.05;;
25854;SDS011;13680;49.936;11.344;2023-08-20T07:06:07;13.05;;;5.80;;
25854;SDS011;13680;49.936;11.344;2023-08-20T07:08:34;13.77;;;5.25;;
25854;SDS011;13680;49.936;11.344;2023-08-20T07:11:00;8.98;;;5.60;;
25854;SDS011;13680;49.936;11.344;2023-08-20T07:13:26;8.32;;;5.75;;
25854;SDS011;13680;49.936;11.344;2023-08-20T07:15:51;12.57;;;5.57;;
25854;SDS011;13680;49.936;11.344;2023-08-20T07:18:16;9.93;;;5.63;;
25854;SDS011;13680;49.936;11.344;2023-08-20T07:20:42;9.38;;;5.50;;
25854;SDS011;13680;49.936;11.344;2023-08-20T07:23:08;9.15;;;5.80;;
25854;SDS011;13680;49.936;11.344;2023-08-20T07:25:38;13.07;;;5.65;;
25854;SDS011;13680;49.936;11.344;2023-08-20T07:28:05;8.80;;;6.05;;
25854;SDS011;13680;49.936;11.344;2023-08-20T07:30:31;12.85;;;5.75;;
25854;SDS011;13680;49.936;11.344;2023-08-20T07:32:57;10.60;;;6.22;;
25854;SDS011;13680;49.936;11.344;2023-08-20T07:35:22;9.60;;;5.97;;
25854;SDS011;13680;49.936;11.344;2023-08-20T07:37:48;17.00;;;6.13;;
25854;SDS011;13680;49.936;11.344;2023-08-20T07:40:13;10.73;;;5.78;;
25854;SDS011;13680;49.936;11.344;2023-08-20T07:42:42;9.85;;;5.95;;
25854;SDS011;13680;49.936;11.344;2023-08-20T07:45:08;9.20;;;5.50;;
25854;SDS011;13680;49.936;11.344;2023-08-20T07:47:37;9.55;;;5.82;;
25854;SDS011;13680;49.936;11.344;2023-08-20T07:50:03;11.10;;;6.18;;
25854;SDS011;13680;49.936;11.344;2023-08-20T07:52:33;11.18;;;5.70;;
25854;SDS011;13680;49.936;11.344;2023-08-20T07:54:58;7.90;;;5.70;;
25854;SDS011;13680;49.936;11.344;2023-08-20T07:57:24;8.50;;;5.60;;
25854;SDS011;13680;49.936;11.344;2023-08-20T07:59:50;12.68;;;6.20;;
25854;SDS011;13680;49.936;11.344;2023-08-20T08:02:15;6.07;;;5.38;;
25854;SDS011;13680;49.936;11.344;2023-08-20T08:04:41;7.80;;;5.53;;
25854;SDS011;13680;49.936;11.344;2023-08-20T08:07:07;13.02;;;5.93;;
25854;SDS011;13680;49.936;11.344;2023-08-20T08:09:33;10.85;;;6.50;;
25854;SDS011;13680;49.936;11.344;2023-08-20T08:11:59;12.32;;;5.72;;
25854;SDS011;13680;49.936;11.344;2023-08-20T08:14:25;7.13;;;5.70;;
25854;SDS011;13680;49.936;11.344;2023-08-20T08:16:50;10.82;;;5.65;;
25854;SDS011;13680;49.936;11.344;2023-08-20T08:19:16;9.00;;;5.88;;
25854;SDS011;13680;49.936;11.344;2023-08-20T08:21:42;9.23;;;6.07;;
25854;SDS011;13680;49.936;11.344;2023-08-20T08:24:09;8.27;;;5.78;;
25854;SDS011;13680;49.936;11.344;2023-08-20T08:26:35;10.52;;;5.90;;
25854;SDS011;13680;49.936;11.344;2023-08-20T08:29:01;9.85;;;5.63;;
25854;SDS011;13680;49.936;11.344;2023-08-20T08:31:27;12.88;;;5.90;;
25854;SDS011;13680;49.936;11.344;2023-08-20T08:33:53;7.15;;;5.13;;
25854;SDS011;13680;49.936;11.344;2023-08-20T08:36:19;8.33;;;5.40;;
25854;SDS011;13680;49.936;11.344;2023-08-20T08:38:44;8.70;;;5.57;;
25854;SDS011;13680;49.936;11.344;2023-08-20T08:41:10;7.07;;;5.47;;
25854;SDS011;13680;49.936;11.344;2023-08-20T08:43:38;8.45;;;5.45;;
25854;SDS011;13680;49.936;11.344;2023-08-20T08:46:07;13.90;;;5.82;;
25854;SDS011;13680;49.936;11.344;2023-08-20T08:48:38;6.88;;;5.45;;
25854;SDS011;13680;49.936;11.344;2023-08-20T08:51:05;11.27;;;6.18;;
25854;SDS011;13680;49.936;11.344;2023-08-20T08:53:30;14.15;;;6.38;;
25854;SDS011;13680;49.936;11.344;2023-08-20T08:55:57;8.65;;;5.68;;
25854;SDS011;13680;49.936;11.344;2023-08-20T08:58:23;8.38;;;5.75;;
25854;SDS011;13680;49.936;11.344;2023-08-20T09:00:48;11.23;;;5.57;;
25854;SDS011;13680;49.936;11.344;2023-08-20T09:03:14;12.95;;;5.63;;
25854;SDS011;13680;49.936;11.344;2023-08-20T09:05:46;26.48;;;6.97;;
25854;SDS011;13680;49.936;11.344;2023-08-20T09:08:18;10.82;;;5.65;;
25854;SDS011;13680;49.936;11.344;2023-08-20T09:10:51;9.20;;;5.60;;
25854;SDS011;13680;49.936;11.344;2023-08-20T09:13:22;9.70;;;5.50;;
25854;SDS011;13680;49.936;11.344;2023-08-20T09:15:54;10.23;;;5.57;;
25854;SDS011;13680;49.936;11.344;2023-08-20T09:18:20;11.65;;;5.18;;
25854;SDS011;13680;49.936;11.344;2023-08-20T09:20:47;11.35;;;5.97;;
25854;SDS011;13680;49.936;11.344;2023-08-20T09:23:14;8.15;;;5.22;;
25854;SDS011;13680;49.936;11.344;2023-08-20T09:25:39;8.80;;;5.67;;
25854;SDS011;13680;49.936;11.344;2023-08-20T09:28:05;7.15;;;5.03;;
25854;SDS011;13680;49.936;11.344;2023-08-20T09:30:31;13.43;;;5.00;;
25854;SDS011;13680;49.936;11.344;2023-08-20T09:33:03;7.53;;;4.60;;
25854;SDS011;13680;49.936;11.344;2023-08-20T09:35:30;5.82;;;4.10;;
25854;SDS011;13680;49.936;11.344;2023-08-20T09:37:59;6.45;;;4.40;;
25854;SDS011;13680;49.936;11.344;2023-08-20T09:40:26;5.28;;;3.83;;
25854;SDS011;13680;49.936;11.344;2023-08-20T09:42:52;9.07;;;4.22;;
25854;SDS011;13680;49.936;11.344;2023-08-20T09:45:19;6.78;;;4.35;;
25854;SDS011;13680;49.936;11.344;2023-08-20T09:47:45;7.25;;;3.88;;
25854;SDS011;13680;49.936;11.344;2023-08-20T09:50:14;17.27;;;4.60;;
25854;SDS011;13680;49.936;11.344;2023-08-20T09:55:23;8.02;;;3.90;;
25854;SDS011;13680;49.936;11.344;2023-08-20T09:57:55;14.05;;;4.05;;
25854;SDS011;13680;49.936;11.344;2023-08-20T10:00:21;7.97;;;4.05;;
25854;SDS011;13680;49.936;11.344;2023-08-20T10:02:47;6.57;;;3.80;;
25854;SDS011;13680;49.936;11.344;2023-08-20T10:05:13;6.88;;;4.20;;
25854;SDS011;13680;49.936;11.344;2023-08-20T10:07:40;8.85;;;4.30;;
25854;SDS011;13680;49.936;11.344;2023-08-20T10:10:08;11.35;;;4.22;;
25854;SDS011;13680;49.936;11.344;2023-08-20T10:12:37;9.27;;;3.80;;
25854;SDS011;13680;49.936;11.344;2023-08-20T10:15:04;6.55;;;3.58;;
25854;SDS011;13680;49.936;11.344;2023-08-20T10:17:30;10.00;;;3.63;;
25854;SDS011;13680;49.936;11.344;2023-08-20T10:19:58;7.68;;;3.53;;
25854;SDS011;13680;49.936;11.344;2023-08-20T10:25:08;8.52;;;3.53;;
25854;SDS011;13680;49.936;11.344;2023-08-20T10:27:37;6.80;;;3.30;;
25854;SDS011;13680;49.936;11.344;2023-08-20T10:30:10;6.65;;;3.95;;
25854;SDS011;13680;49.936;11.344;2023-08-20T10:32:50;11.73;;;4.07;;
25854;SDS011;13680;49.936;11.344;2023-08-20T10:38:02;6.65;;;3.13;;
25854;SDS011;13680;49.936;11.344;2023-08-20T10:43:26;9.18;;;3.50;;
25854;SDS011;13680;49.936;11.344;2023-08-20T10:46:06;9.07;;;3.78;;
25854;SDS011;13680;49.936;11.344;2023-08-20T10:48:33;7.82;;;3.80;;
25854;SDS011;13680;49.936;11.344;2023-08-20T10:51:35;8.30;;;3.75;;
25854;SDS011;13680;49.936;11.344;2023-08-20T10:56:26;7.38;;;3.58;;
25854;SDS011;13680;49.936;11.344;2023-08-20T10:59:07;8.10;;;3.15;;
25854;SDS011;13680;49.936;11.344;2023-08-20T11:01:34;8.98;;;3.65;;
25854;SDS011;13680;49.936;11.344;2023-08-20T11:03:59;6.97;;;3.80;;
25854;SDS011;13680;49.936;11.344;2023-08-20T11:06:30;7.97;;;3.80;;
25854;SDS011;13680;49.936;11.344;2023-08-20T11:08:57;9.30;;;3.92;;
25854;SDS011;13680;49.936;11.344;2023-08-20T11:11:23;10.23;;;3.45;;
25854;SDS011;13680;49.936;11.344;2023-08-20T11:13:49;8.55;;;3.13;;
25854;SDS011;13680;49.936;11.344;2023-08-20T11:16:14;8.13;;;3.05;;
25854;SDS011;13680;49.936;11.344;2023-08-20T11:18:40;9.98;;;3.63;;
25854;SDS011;13680;49.936;11.344;2023-08-20T11:21:06;10.88;;;3.28;;
25854;SDS011;13680;49.936;11.344;2023-08-20T11:23:32;9.27;;;3.47;;
25854;SDS011;13680;49.936;11.344;2023-08-20T11:25:58;10.43;;;3.47;;
25854;SDS011;13680;49.936;11.344;2023-08-20T11:28:24;8.88;;;3.20;;
25854;SDS011;13680;49.936;11.344;2023-08-20T11:30:51;4.05;;;3.10;;
25854;SDS011;13680;49.936;11.344;2023-08-20T11:33:17;9.45;;;3.30;;
25854;SDS011;13680;49.936;11.344;2023-08-20T11:35:43;5.95;;;3.40;;
25854;SDS011;13680;49.936;11.344;2023-08-20T11:38:09;5.10;;;3.00;;
25854;SDS011;13680;49.936;11.344;2023-08-20T11:40:35;6.15;;;3.00;;
25854;SDS011;13680;49.936;11.344;2023-08-20T11:43:01;6.78;;;2.97;;
25854;SDS011;13680;49.936;11.344;2023-08-20T11:45:27;7.43;;;3.40;;
25854;SDS011;13680;49.936;11.344;2023-08-20T11:47:55;7.17;;;3.07;;
25854;SDS011;13680;49.936;11.344;2023-08-20T11:50:22;6.28;;;2.92;;
25854;SDS011;13680;49.936;11.344;2023-08-20T11:52:47;10.73;;;3.70;;
25854;SDS011;13680;49.936;11.344;2023-08-20T11:55:13;6.38;;;3.00;;
25854;SDS011;13680;49.936;11.344;2023-08-20T11:57:38;8.93;;;3.22;;
25854;SDS011;13680;49.936;11.344;2023-08-20T12:00:04;11.02;;;3.15;;
25854;SDS011;13680;49.936;11.344;2023-08-20T12:02:40;14.25;;;3.17;;
25854;SDS011;13680;49.936;11.344;2023-08-20T12:05:07;4.32;;;2.97;;
25854;SDS011;13680;49.936;11.344;2023-08-20T12:07:32;12.45;;;3.53;;
25854;SDS011;13680;49.936;11.344;2023-08-20T12:09:57;9.43;;;3.30;;
25854;SDS011;13680;49.936;11.344;2023-08-20T12:12:23;7.88;;;2.85;;
25854;SDS011;13680;49.936;11.344;2023-08-20T12:14:48;6.10;;;2.67;;
25854;SDS011;13680;49.936;11.344;2023-08-20T12:17:17;10.75;;;3.47;;
25854;SDS011;13680;49.936;11.344;2023-08-20T12:19:46;9.63;;;3.13;;
25854;SDS011;13680;49.936;11.344;2023-08-20T12:22:11;5.15;;;2.78;;
25854;SDS011;13680;49.936;11.344;2023-08-20T12:24:38;10.93;;;3.42;;
25854;SDS011;13680;49.936;11.344;2023-08-20T12:27:03;7.82;;;3.00;;
25854;SDS011;13680;49.936;11.344;2023-08-20T12:29:29;6.65;;;2.97;;
25854;SDS011;13680;49.936;11.344;2023-08-20T12:31:54;5.72;;;2.40;;
25854;SDS011;13680;49.936;11.344;2023-08-20T12:34:19;14.73;;;3.38;;
25854;SDS011;13680;49.936;11.344;2023-08-20T12:36:46;7.95;;;2.78;;
25854;SDS011;13680;49.936;11.344;2023-08-20T12:39:12;6.15;;;2.90;;
25854;SDS011;13680;49.936;11.344;2023-08-20T12:41:38;7.40;;;2.92;;
25854;SDS011;13680;49.936;11.344;2023-08-20T12:44:04;8.40;;;2.72;;
25854;SDS011;13680;49.936;11.344;2023-08-20T12:46:29;8.75;;;3.17;;
25854;SDS011;13680;49.936;11.344;2023-08-20T12:48:55;9.57;;;3.35;;
25854;SDS011;13680;49.936;11.344;2023-08-20T12:51:20;7.85;;;2.97;;
25854;SDS011;13680;49.936;11.344;2023-08-20T12:53:46;7.40;;;2.72;;
25854;SDS011;13680;49.936;11.344;2023-08-20T12:56:11;12.17;;;3.43;;
25854;SDS011;13680;49.936;11.344;2023-08-20T12:58:37;8.15;;;2.83;;
25854;SDS011;13680;49.936;11.344;2023-08-20T13:01:03;5.07;;;2.78;;
25854;SDS011;13680;49.936;11.344;2023-08-20T13:03:28;7.68;;;3.20;;
25854;SDS011;13680;49.936;11.344;2023-08-20T13:05:54;6.70;;;2.70;;
25854;SDS011;13680;49.936;11.344;2023-08-20T13:08:22;9.43;;;2.97;;
25854;SDS011;13680;49.936;11.344;2023-08-20T13:10:50;7.88;;;2.83;;
25854;SDS011;13680;49.936;11.344;2023-08-20T13:13:20;7.15;;;3.30;;
25854;SDS011;13680;49.936;11.344;2023-08-20T13:15:47;8.48;;;2.88;;
25854;SDS011;13680;49.936;11.344;2023-08-20T13:18:13;10.27;;;2.95;;
25854;SDS011;13680;49.936;11.344;2023-08-20T13:20:39;7.93;;;3.22;;
25854;SDS011;13680;49.936;11.344;2023-08-20T13:23:05;6.07;;;3.22;;
25854;SDS011;13680;49.936;11.344;2023-08-20T13:25:30;9.77;;;2.97;;
25854;SDS011;13680;49.936;11.344;2023-08-20T13:27:56;8.57;;;3.35;;
25854;SDS011;13680;49.936;11.344;2023-08-20T13:30:21;7.80;;;3.10;;
25854;SDS011;13680;49.936;11.344;2023-08-20T13:32:46;6.77;;;2.93;;
25854;SDS011;13680;49.936;11.344;2023-08-20T13:35:11;5.60;;;2.50;;
25854;SDS011;13680;49.936;11.344;2023-08-20T13:37:37;5.95;;;2.67;;
25854;SDS011;13680;49.936;11.344;2023-08-20T13:40:02;9.25;;;2.63;;
25854;SDS011;13680;49.936;11.344;2023-08-20T13:42:32;8.13;;;2.70;;
25854;SDS011;13680;49.936;11.344;2023-08-20T13:44:57;6.78;;;2.83;;
25854;SDS011;13680;49.936;11.344;2023-08-20T13:47:22;8.00;;;3.03;;
25854;SDS011;13680;49.936;11.344;2023-08-20T13:49:47;9.23;;;3.28;;
25854;SDS011;13680;49.936;11.344;2023-08-20T13:52:13;7.93;;;2.90;;
25854;SDS011;13680;49.936;11.344;2023-08-20T13:54:38;6.18;;;2.90;;
25854;SDS011;13680;49.936;11.344;2023-08-20T13:57:03;6.47;;;2.35;;
25854;SDS011;13680;49.936;11.344;2023-08-20T13:59:29;5.53;;;2.90;;
25854;SDS011;13680;49.936;11.344;2023-08-20T14:01:55;7.50;;;3.00;;
25854;SDS011;13680;49.936;11.344;2023-08-20T14:04:21;6.25;;;2.92;;
25854;SDS011;13680;49.936;11.344;2023-08-20T14:06:46;6.95;;;3.05;;
25854;SDS011;13680;49.936;11.344;2023-08-20T14:09:11;4.70;;;2.90;;
25854;SDS011;13680;49.936;11.344;2023-08-20T14:11:37;8.73;;;2.80;;
25854;SDS011;13680;49.936;11.344;2023-08-20T14:14:02;5.43;;;2.50;;
25854;SDS011;13680;49.936;11.344;2023-08-20T14:16:27;4.68;;;2.80;;
25854;SDS011;13680;49.936;11.344;2023-08-20T14:18:53;10.18;;;2.72;;
25854;SDS011;13680;49.936;11.344;2023-08-20T14:21:18;6.53;;;3.10;;
25854;SDS011;13680;49.936;11.344;2023-08-20T14:23:43;8.20;;;2.87;;
25854;SDS011;13680;49.936;11.344;2023-08-20T14:26:09;7.03;;;3.03;;
25854;SDS011;13680;49.936;11.344;2023-08-20T14:28:34;5.97;;;3.15;;
25854;SDS011;13680;49.936;11.344;2023-08-20T14:31:03;11.70;;;3.50;;
25854;SDS011;13680;49.936;11.344;2023-08-20T14:33:29;7.00;;;3.10;;
25854;SDS011;13680;49.936;11.344;2023-08-20T14:35:55;7.28;;;3.10;;
25854;SDS011;13680;49.936;11.344;2023-08-20T14:38:20;10.05;;;3.55;;
25854;SDS011;13680;49.936;11.344;2023-08-20T14:40:46;5.53;;;2.93;;
25854;SDS011;13680;49.936;11.344;2023-08-20T14:43:12;8.00;;;3.03;;
25854;SDS011;13680;49.936;11.344;2023-08-20T14:45:37;8.83;;;3.33;;
25854;SDS011;13680;49.936;11.344;2023-08-20T14:48:02;10.07;;;3.60;;